Latest Weather Observations for Nowra

IDN60801

Issued at 3:35 am EDT Sunday 23 November 2014 (issued every 30 minutes, with the page automatically refreshed every 10 minutes)

About weather observations | Map of weather stations | Latest weather observations for NSW | Other Formats
Station Details ID: 068072 Name: NOWRA RAN AIR STATION AWS Lat: -34.95 Lon: 150.54 Height: 109.0 m
Data from the previous 72 hours. | See also: Recent months at Nowra
Date/Time
EDT
Temp
°C
App
Temp
°C
Dew
Point
Rel
Hum
%
Delta-T
°C
Wind Press
QNH
hPa
Press
MSL
hPa
Rain
since 9 am
mm
Dir
 
Spd
km/h
Gust
km/h
Spd
kts
Gust
kts
23/03:30am 17.4 19.4 16.9 97 0.3 NNW 2 7 1 4 1009.5 - 0.0
23/03:00am 17.2 19.4 16.6 96 0.4 NNW 0 0 0 0 1010.0 1009.8 0.0
23/02:30am 17.4 19.7 16.8 96 0.4 CALM 0 0 0 0 1009.7 - 0.0
23/02:00am 17.6 17.6 17.1 97 0.3 NNW 13 17 7 9 1010.1 - 0.0
23/01:30am 17.1 17.7 16.9 99 0.1 W 9 11 5 6 1010.9 - 0.0
23/01:00am 16.0 17.6 15.0 94 0.6 CALM 0 0 0 0 1011.1 - 0.0
23/12:30am 17.2 19.6 17.0 99 0.1 CALM 0 0 0 0 1011.5 - 0.0
23/12:00am 17.2 19.6 16.9 98 0.2 CALM 0 0 0 0 1011.9 1011.7 0.0
 
Date/Time
EDT
Temp
°C
App
Temp
°C
Dew
Point
Rel
Hum
%
Delta-T
°C
Wind Press
QNH
hPa
Press
MSL
hPa
Rain
since 9 am
mm
Dir
 
Spd
km/h
Gust
km/h
Spd
kts
Gust
kts
22/11:30pm 17.3 18.2 16.5 95 0.5 N 7 9 4 5 1011.9 - 0.0
22/11:00pm 18.0 18.7 17.0 94 0.6 W 9 11 5 6 1012.2 - 0.0
22/10:30pm 18.0 18.8 17.2 95 0.5 WSW 9 9 5 5 1012.6 - 0.0
22/10:00pm 17.8 18.4 16.7 93 0.7 SW 9 11 5 6 1012.7 - 0.0
22/09:30pm 17.9 17.8 16.1 89 1.1 SSW 11 13 6 7 1013.0 - 0.0
22/09:00pm 18.7 18.4 16.5 87 1.3 S 13 15 7 8 1012.6 1012.4 0.0
22/08:30pm 19.3 19.7 16.3 83 1.8 S 9 11 5 6 1012.1 - 0.0
22/08:00pm 19.9 20.4 16.5 81 2.1 SSE 9 13 5 7 1011.6 - 0.0
22/07:30pm 20.2 19.8 16.2 78 2.4 SE 13 20 7 11 1011.4 - 0.0
22/07:00pm 20.5 20.4 16.1 76 2.6 ESE 11 15 6 8 1011.0 - 0.0
22/06:30pm 20.9 20.4 15.9 73 3.0 ESE 13 19 7 10 1011.0 - 0.0
22/06:00pm 21.4 20.8 15.7 70 3.4 E 13 20 7 11 1010.6 1010.4 0.0
22/05:30pm 22.7 22.2 16.0 66 4.1 E 13 19 7 10 1010.6 - 0.0
22/05:00pm 23.0 22.0 15.6 63 4.5 E 15 20 8 11 1010.4 - 0.0
22/04:30pm 23.3 22.4 15.9 63 4.5 E 15 20 8 11 1010.6 - 0.0
22/04:00pm 23.1 21.0 15.2 61 4.7 NE 20 26 11 14 1010.5 - 0.0
22/03:30pm 23.7 21.4 14.7 57 5.4 ENE 20 26 11 14 1010.6 - 0.0
22/03:00pm 23.9 21.4 14.0 54 5.8 ENE 20 26 11 14 1011.2 1011.0 0.0
22/02:30pm 24.2 21.7 14.0 53 6.0 ENE 20 26 11 14 1011.7 - 0.0
22/02:00pm 24.2 20.8 13.7 52 6.2 NNE 24 32 13 17 1012.0 - 0.0
22/01:30pm 24.6 22.0 13.2 49 6.7 ENE 19 24 10 13 1012.4 - 0.0
22/01:00pm 25.1 22.1 12.7 46 7.2 NE 20 28 11 15 1012.8 - 0.0
22/12:30pm 24.8 22.1 13.0 47 6.9 NE 19 24 10 13 1013.3 - 0.0
22/12:00pm 25.3 23.8 13.2 47 7.1 NE 13 20 7 11 1013.9 1013.6 0.0
22/11:30am 24.4 21.0 11.4 44 7.4 NNE 20 24 11 13 1014.2 - 0.0
22/11:00am 23.9 22.2 11.2 44 7.1 N 11 19 6 10 1014.5 - 0.0
22/10:30am 23.2 21.1 9.6 42 7.4 NNE 11 19 6 10 1014.8 - 0.0
22/10:00am 23.0 21.2 9.4 42 7.4 ENE 9 17 5 9 1015.3 - 0.0
22/09:30am 21.8 20.2 10.3 48 6.3 NNE 9 15 5 8 1015.6 - 0.0
22/09:00am 21.1 19.5 12.8 59 4.7 NNE 13 20 7 11 1015.3 1015.0 0.0
22/08:30am 20.1 19.4 13.1 64 4.0 N 9 15 5 8 1015.7 - 0.0
22/08:00am 19.8 19.6 13.5 67 3.6 N 7 13 4 7 1015.9 - 0.0
22/07:30am 19.3 19.3 13.5 69 3.3 E 6 7 3 4 1015.9 - 0.0
22/07:00am 18.6 18.6 14.1 75 2.6 SE 7 9 4 5 1015.6 - 0.0
22/06:30am 17.7 18.9 15.0 84 1.6 SSE 2 7 1 4 1015.5 - 0.0
22/06:00am 16.7 17.1 14.7 88 1.2 SSE 6 7 3 4 1015.4 1015.1 0.0
22/05:30am 17.0 16.8 14.8 87 1.3 SSE 9 11 5 6 1015.0 - 0.0
22/05:01am 17.7 17.7 15.1 85 1.5 SSE 9 11 5 6 1014.7 - 0.0
22/05:00am 17.7 17.7 15.3 86 1.4 SSE 9 11 5 6 1014.7 - 0.0
22/04:30am 17.7 18.1 15.3 86 1.4 S 7 9 4 5 1014.6 - 0.0
22/04:00am 17.8 18.2 15.2 85 1.5 S 7 11 4 6 1014.4 - 0.0
22/03:30am 17.7 18.2 15.1 85 1.5 SSW 6 7 3 4 1014.0 - 0.0
22/03:00am 17.7 18.3 15.7 88 1.2 SSW 7 9 4 5 1014.2 1013.9 0.0
22/02:30am 17.5 18.2 15.7 89 1.1 SSW 6 6 3 3 1014.4 - 0.0
22/02:09am 17.4 19.2 15.4 88 1.2 CALM 0 7 0 4 1014.6 - 0.0
22/02:00am 17.6 18.2 15.4 87 1.3 SSW 6 7 3 4 1014.6 - 0.0
22/01:30am 18.1 18.7 15.9 87 1.3 SSW 7 9 4 5 1014.8 - 0.0
22/01:17am 18.1 18.8 16.1 88 1.2 SSW 7 9 4 5 1015.0 - 0.0
22/01:00am 18.0 17.9 16.0 88 1.2 SW 11 13 6 7 1015.0 - 0.0
22/12:51am 18.1 18.0 16.1 88 1.2 SSW 11 13 6 7 1015.0 - 0.0
22/12:30am 18.3 18.2 16.1 87 1.3 S 11 13 6 7 1015.2 - 0.0
22/12:00am 18.7 18.5 15.8 83 1.7 S 11 15 6 8 1015.4 1015.1 0.0
 
Date/Time
EDT
Temp
°C
App
Temp
°C
Dew
Point
Rel
Hum
%
Delta-T
°C
Wind Press
QNH
hPa
Press
MSL
hPa
Rain
since 9 am
mm
Dir
 
Spd
km/h
Gust
km/h
Spd
kts
Gust
kts
21/11:48pm 18.7 18.2 15.8 83 1.7 S 13 17 7 9 1015.4 - 0.0
21/11:30pm 18.8 18.2 15.7 82 1.8 SSE 13 17 7 9 1015.4 - 0.0
21/11:19pm 18.8 17.5 15.7 82 1.8 SSE 17 20 9 11 1015.2 - 0.0
21/11:00pm 18.9 17.5 15.6 81 2.0 SSE 17 20 9 11 1015.2 - 0.0
21/10:43pm 19.0 17.6 15.5 80 2.1 SSE 17 22 9 12 1015.1 - 0.0
21/10:38pm 19.0 17.6 15.5 80 2.1 SSE 17 22 9 12 1015.2 - 0.0
21/10:30pm 19.0 17.6 15.5 80 2.1 SSE 17 20 9 11 1015.2 - 0.0
21/10:00pm 19.3 17.9 15.6 79 2.2 SSE 17 20 9 11 1015.1 - 0.0
21/09:30pm 19.3 17.8 15.4 78 2.3 SSE 17 22 9 12 1014.7 - 0.0
21/09:27pm 19.3 17.5 15.6 79 2.2 SSE 19 24 10 13 1014.6 - 0.0
21/09:05pm 19.3 17.5 15.4 78 2.3 SSE 19 24 10 13 1014.3 - 0.0
21/09:00pm 19.4 18.3 15.3 77 2.4 SSE 15 22 8 12 1014.2 1013.9 0.0
21/08:30pm 19.6 18.6 15.5 77 2.4 S 15 19 8 10 1013.7 - 0.0
21/08:00pm 19.9 18.5 15.5 76 2.6 SSE 17 24 9 13 1013.1 - 0.0
21/07:54pm 19.9 18.9 15.7 77 2.5 SSE 15 22 8 12 1013.0 - 0.0
21/07:31pm 20.1 18.4 15.7 76 2.6 S 19 24 10 13 1012.5 - 0.0
21/07:30pm 20.0 18.2 15.6 76 2.6 S 19 24 10 13 1012.5 - 0.0
21/07:19pm 20.2 18.5 15.8 76 2.6 S 19 26 10 14 1012.2 - 0.0
21/07:01pm 20.4 19.1 15.8 75 2.8 SSE 17 26 9 14 1011.9 - 0.0
21/07:00pm 20.6 19.4 16.2 76 2.7 SSE 17 22 9 12 1011.8 - 0.0
21/06:30pm 20.7 18.9 16.1 75 2.8 S 20 26 11 14 1011.0 - 0.0
21/06:00pm 21.5 18.9 16.0 71 3.3 SE 24 32 13 17 1010.1 1009.9 0.0
21/05:52pm 22.3 19.7 15.9 67 3.9 SSE 24 32 13 17 1010.0 - 0.0
21/05:30pm 23.2 19.2 16.3 65 4.2 SE 32 41 17 22 1009.2 - 0.0
21/05:00pm 23.9 18.9 15.1 58 5.3 S 35 46 19 25 1008.0 - 0.0
21/04:30pm 25.2 19.7 13.7 49 6.8 SSE 35 48 19 26 1007.3 - 0.0
21/04:18pm 25.8 20.2 13.3 46 7.3 SSE 35 54 19 29 1007.2 - 0.0
21/04:04pm 29.1 24.2 12.5 36 9.8 S 30 43 16 23 1006.7 - 0.0
21/04:00pm 33.8 30.7 11.6 26 13.1 SW 19 22 10 12 1006.4 - 0.0
21/03:30pm 34.4 28.1 8.9 21 14.5 WSW 32 44 17 24 1005.9 - 0.0
21/03:00pm 35.4 29.5 9.0 20 15.2 W 30 44 16 24 1005.7 1005.4 0.0
21/02:50pm 35.3 28.8 8.2 19 15.3 W 32 44 17 24 1005.8 - 0.0
21/02:35pm 35.8 27.9 7.8 18 15.8 W 39 57 21 31 1005.6 - 0.0
21/02:30pm 35.8 28.3 7.8 18 15.8 W 37 57 20 31 1005.6 - 0.0
21/02:26pm 35.3 27.9 6.6 17 15.8 W 35 57 19 31 1005.6 - 0.0
21/02:17pm 35.1 28.9 8.0 19 15.3 WNW 30 46 16 25 1005.4 - 0.0
21/02:00pm 35.4 31.4 9.0 20 15.1 W 20 28 11 15 1005.4 - 0.0
21/01:30pm 34.5 28.4 8.3 20 14.8 NW 30 50 16 27 1005.7 - 0.0
21/01:16pm 34.8 28.4 7.0 18 15.4 NW 30 48 16 26 1005.7 - 0.0
21/01:00pm 35.0 29.8 7.1 18 15.5 NW 24 35 13 19 1005.8 - 0.0
21/12:30pm 35.0 27.7 7.1 18 15.5 W 35 50 19 27 1005.8 - 0.0
21/12:12pm 35.1 29.1 7.2 18 15.5 W 28 61 15 33 1005.9 - 0.0
21/12:00pm 34.4 29.1 6.7 18 15.3 NW 24 37 13 20 1006.0 1005.7 0.0
21/11:30am 33.7 31.7 10.3 24 13.6 NW 11 37 6 20 1005.9 - 0.0
21/11:00am 31.8 29.4 9.9 26 12.5 N 13 24 7 13 1006.1 - 0.0
21/10:30am 30.2 29.4 13.0 34 10.2 NNE 9 15 5 8 1006.1 - 0.0
21/10:00am 27.8 27.3 12.6 39 8.9 N 7 11 4 6 1006.3 - 0.0
21/09:30am 25.8 25.6 13.6 47 7.2 NNW 7 11 4 6 1006.6 - 0.0
21/09:00am 24.7 24.7 15.1 55 5.8 N 9 13 5 7 1006.9 1006.6 -
21/08:30am 23.3 23.4 13.8 55 5.6 N 6 9 3 5 1006.7 - -
21/08:00am 22.5 22.7 14.1 59 4.9 N 6 11 3 6 1006.8 - -
21/07:30am 21.1 21.1 14.3 65 4.0 N 7 9 4 5 1007.1 - -
21/07:00am 19.7 19.7 14.3 71 3.1 N 7 9 4 5 1007.0 - -
21/06:30am 19.3 20.5 14.8 75 2.6 N 2 7 1 4 1007.0 - -
21/06:00am 18.7 18.8 13.8 73 2.8 W 6 9 3 5 1007.0 1006.7 -
21/05:30am 19.8 19.9 14.0 69 3.4 NW 6 13 3 7 1006.8 - -
21/05:00am 20.3 20.1 13.5 65 3.9 SSE 7 11 4 6 1006.4 - -
21/04:30am 20.6 19.0 13.8 65 3.9 S 15 20 8 11 1006.1 - -
21/04:00am 21.0 18.8 14.4 66 3.9 S 19 22 10 12 1005.9 - -
21/03:30am 21.7 19.2 14.1 62 4.4 S 20 28 11 15 1006.0 - -
21/03:11am 22.4 18.5 14.5 61 4.7 S 28 35 15 19 1005.9 - -
21/03:00am 22.9 22.4 13.7 56 5.4 WSW 9 11 5 6 1005.4 1005.1 -
21/02:30am 23.7 23.1 13.6 53 5.9 WNW 9 13 5 7 1005.2 - -
21/02:00am 23.3 22.6 14.3 57 5.3 W 11 13 6 7 1005.2 - -
21/01:30am 23.2 22.7 15.0 60 4.9 W 11 15 6 8 1005.4 - -
21/01:00am 21.3 22.2 16.5 74 2.9 W 7 11 4 6 1005.6 - -
21/12:30am 20.2 22.9 17.8 86 1.5 CALM 0 0 0 0 1005.8 - -
21/12:00am 19.6 22.1 17.2 86 1.5 CALM 0 0 0 0 1006.2 1005.9 -
 
Date/Time
EDT
Temp
°C
App
Temp
°C
Dew
Point
Rel
Hum
%
Delta-T
°C
Wind Press
QNH
hPa
Press
MSL
hPa
Rain
since 9 am
mm
Dir
 
Spd
km/h
Gust
km/h
Spd
kts
Gust
kts
20/11:30pm 19.6 22.1 17.2 86 1.5 CALM 0 0 0 0 1006.6 - -
20/11:00pm 19.7 22.2 17.3 86 1.5 CALM 0 0 0 0 1007.0 - -
20/10:30pm 19.3 21.6 16.7 85 1.6 CALM 0 0 0 0 1007.4 - -
20/10:00pm 20.4 21.9 18.0 86 1.5 W 7 11 4 6 1007.6 - -
20/09:30pm 19.9 22.3 16.9 83 1.8 CALM 0 4 0 2 1007.6 - -
20/09:00pm 20.2 21.1 16.6 80 2.2 SSW 7 9 4 5 1007.3 1007.0 -
20/08:30pm 21.1 21.7 16.9 77 2.6 SSW 9 11 5 6 1007.2 - -
20/08:00pm 23.4 24.4 16.9 67 4.0 SE 7 9 4 5 1007.0 - -
20/07:30pm 25.0 25.7 17.0 61 5.0 ESE 9 11 5 6 1006.7 - -
20/07:00pm 26.9 27.1 16.8 54 6.3 ESE 11 15 6 8 1006.5 - -
20/06:30pm 28.4 28.7 17.0 50 7.2 E 11 13 6 7 1006.1 - -
20/06:00pm 29.1 29.2 16.6 46 7.9 ESE 11 17 6 9 1006.1 1005.8 -
20/05:30pm 29.3 28.9 16.1 44 8.2 E 13 17 7 9 1005.9 - -
20/05:00pm 30.6 30.2 16.2 41 9.0 E 13 19 7 10 1005.9 - -
20/04:30pm 29.5 28.2 14.9 41 8.9 ESE 15 19 8 10 1006.2 - -
20/04:00pm 31.0 28.6 13.7 34 10.5 E 19 24 10 13 1006.4 - -
20/03:30pm 32.3 30.5 14.4 33 11.0 E 17 22 9 12 1006.8 - 0.0
20/03:00pm 31.1 28.7 13.8 34 10.5 E 19 22 10 12 1007.4 1007.1 0.0
20/02:30pm 30.3 27.5 13.1 34 10.3 ENE 20 26 11 14 1007.7 - 0.0
20/02:00pm 30.5 27.3 15.4 40 9.3 ENE 26 35 14 19 1007.7 - 0.0
20/01:30pm 32.1 29.2 12.8 30 11.6 ENE 20 26 11 14 1008.3 - 0.0
20/01:00pm 32.5 29.1 13.7 32 11.4 NE 24 32 13 17 1009.1 - 0.0
20/12:30pm 31.7 28.7 9.3 25 12.7 NNE 15 26 8 14 1009.6 - 0.0
20/12:00pm 30.8 28.1 11.7 31 11.2 N 17 26 9 14 1010.2 1010.0 0.0
20/11:30am 30.5 28.8 12.4 33 10.7 N 13 22 7 12 1010.8 - 0.0
20/11:00am 29.5 27.3 12.0 34 10.2 N 15 24 8 13 1011.3 - 0.0
20/10:30am 28.3 25.2 12.2 37 9.4 N 20 26 11 14 1011.9 - 0.0
20/10:00am 26.4 25.0 13.5 45 7.6 NW 13 20 7 11 1012.5 - 0.0
20/09:30am 24.7 23.1 13.9 51 6.4 NNW 15 22 8 12 1013.1 - 0.0
20/09:00am 23.3 22.0 13.8 55 5.6 NNW 13 20 7 11 1013.3 1013.0 0.0
20/08:30am 21.9 20.8 14.3 62 4.5 NNW 13 17 7 9 1013.4 - 0.0
20/08:00am 21.5 19.7 14.4 64 4.2 NW 17 20 9 11 1013.4 - 0.0
20/07:30am 20.5 19.8 15.3 72 3.1 NW 13 17 7 9 1013.4 - 0.0
20/07:00am 18.9 17.2 14.8 77 2.4 NW 17 19 9 10 1013.6 - 0.0
20/06:30am 17.6 16.3 14.7 83 1.7 NW 15 17 8 9 1013.6 - 0.0
20/06:00am 16.6 15.3 14.8 89 1.0 NW 15 19 8 10 1013.5 1013.2 0.0
20/05:30am 16.4 15.3 14.4 88 1.1 NW 13 15 7 8 1013.4 - 0.0
20/05:00am 16.6 15.0 15.0 90 0.9 WNW 17 19 9 10 1013.4 - 0.0
20/04:30am 15.8 15.9 15.6 99 0.1 WNW 9 13 5 7 1013.5 - 0.0
20/04:00am 13.9 14.3 13.7 99 0.1 NNW 4 13 2 7 1013.5 - 0.0

Other Formats:

Comma delimited format used in spreadsheet applications
http://www.bom.gov.au/fwo/IDN60801/IDN60801.94750.axf

JavaScript Object Notation format (JSON) in row-major order
http://www.bom.gov.au/fwo/IDN60801/IDN60801.94750.json